Aquapuelche — D5NA5 — position and weather

sailwx.info

Track history (hours):
 
Tides and Currents Weather Stations Pressure Air Temp Water Temp Dewpoint Dewpoint Depression Visibility Wind Speed Wind Dir Waves Ship Positions

Aquapuelche

Last reported at 2017-Nov-06 01:28 UTC. Time now 2017-Nov-18 15:29 UTC.
Position N 33°39' W 118°12'.
Warning: this ship's position is 12 days out of date.

Length 244 m; draft 8.8 m.

Type: Tanker. MMSI: 636017857.

Date/timePositionNaut miles runAvg speedWind from/ knotsBaromVisibWave heightAir tempDewpointWater temp
2017-Nov-06 01:28N 33°39' W 118°12'1 0.1
2017-Nov-05 15:15N 33°39' W 118°10'14 8.7
2017-Nov-05 13:37N 33°35' W 118°27'111.1
2017-Nov-05 13:30N 33°35' W 118°28'611.6
2017-Nov-05 13:00N 33°35' W 118°35'611.2
2017-Nov-05 12:30N 33°35' W 118°42'611.4
2017-Nov-05 12:00N 33°35' W 118°49'611.6
2017-Nov-05 11:30N 33°35' W 118°55'611.4
2017-Nov-05 11:00N 33°35' W 119°02'611.5
2017-Nov-05 10:30N 33°35' W 119°09'611.5
2017-Nov-05 10:00N 33°35' W 119°16'612.0
2017-Nov-05 09:30N 33°35' W 119°23'611.8
2017-Nov-05 09:00N 33°35' W 119°31'611.8
2017-Nov-05 08:30N 33°35' W 119°37'611.0
2017-Nov-05 07:59N 33°35' W 119°44'611.2
2017-Nov-05 07:30N 33°35' W 119°51'611.6
2017-Nov-05 06:59N 33°35' W 119°58'611.1
2017-Nov-05 06:27N 33°35' W 120°05'511.5
2017-Nov-05 06:00N 33°35' W 120°11'611.6
2017-Nov-05 05:29N 33°35' W 120°18'4 7.9
2017-Nov-05 05:01N 33°35' W 120°23'611.6
2017-Nov-05 04:28N 33°36' W 120°31'512.0
2017-Nov-05 04:00N 33°37' W 120°37'612.0
2017-Nov-05 03:30N 33°39' W 120°44'612.3
2017-Nov-05 03:01N 33°41' W 120°51'612.3
2017-Nov-05 02:30N 33°43' W 120°58'612.3
2017-Nov-05 02:01N 33°45' W 121°05'612.3
2017-Nov-05 01:30N 33°47' W 121°12'612.0
2017-Nov-05 01:00N 33°49' W 121°19'611.8
2017-Nov-05 00:30N 33°51' W 121°25'611.0
2017-Nov-05 00:00N 33°54' W 121°30'612.0
2017-Nov-04 23:31N 33°59' W 121°35'611.7
2017-Nov-04 23:00N 34°04' W 121°39'611.8
2017-Nov-04 22:30N 34°09' W 121°43'612.2
2017-Nov-04 22:01N 34°14' W 121°47'612.6
2017-Nov-04 21:30N 34°19' W 121°51'612.6
2017-Nov-04 21:00N 34°24' W 121°56'612.6
2017-Nov-04 20:30N 34°29' W 121°60'612.7
2017-Nov-04 20:00N 34°34' W 122°04'16412.2
2017-Nov-04 06:32N 37°10' W 123°09'112.2
2017-Nov-04 06:26N 37°11' W 123°09'612.0
2017-Nov-04 05:57N 37°17' W 123°09'511.9
2017-Nov-04 05:30N 37°22' W 123°10'611.5
2017-Nov-04 05:00N 37°28' W 123°10'611.1
2017-Nov-04 04:30N 37°32' W 123°06'611.8
2017-Nov-04 04:00N 37°36' W 123°00'611.9
2017-Nov-04 03:30N 37°39' W 122°54'611.8
2017-Nov-04 03:00N 37°42' W 122°48'611.7
2017-Nov-04 02:30N 37°46' W 122°42'511.0
2017-Nov-04 02:01N 37°47' W 122°35'714.2
2017-Nov-04 01:30N 37°50' W 122°27'510.2
2017-Nov-04 01:00N 37°55' W 122°27'714.3
2017-Nov-04 00:31N 38°02' W 122°23'612.8
2017-Nov-04 00:00N 38°04' W 122°15'611.5
2017-Nov-03 23:30N 38°02' W 122°08'  
2017-Nov-01 19:02N 38°02' W 122°07'0 0.0
2017-Nov-01 18:58N 38°02' W 122°07'0 0.0
2017-Nov-01 18:30N 38°02' W 122°07'70 3.5
2017-Oct-31 22:41N 37°29' W 123°25'1 0.7
2017-Oct-31 20:55N 37°29' W 123°26'0 0.6
2017-Oct-31 20:28N 37°29' W 123°27'1 0.9
2017-Oct-31 19:07N 37°28' W 123°27'1 5.7
2017-Oct-31 18:59N 37°28' W 123°26'5 9.1
2017-Oct-31 18:29N 37°28' W 123°20'1 1.6
2017-Oct-31 17:57N 37°28' W 123°19'0 0.5
2017-Oct-31 17:28N 37°28' W 123°19'2 0.5
2017-Oct-31 13:22N 37°28' W 123°22'4 0.7
2017-Oct-31 08:08N 37°29' W 123°26'0 1.0
2017-Oct-31 07:56N 37°29' W 123°26'4 1.3
2017-Oct-31 04:39N 37°29' W 123°21'0 0.9
2017-Oct-31 04:29N 37°29' W 123°21'3 1.0
2017-Oct-31 01:29N 37°29' W 123°25'0 0.9
2017-Oct-31 01:00N 37°29' W 123°25'0 0.8
2017-Oct-31 00:30N 37°28' W 123°26'16 9.0
2017-Oct-30 22:45N 37°14' W 123°19'1311.4
2017-Oct-30 21:35N 37°01' W 123°12'111.4
2017-Oct-30 21:29N 37°01' W 123°12'611.1
2017-Oct-30 20:59N 36°55' W 123°09'510.9
2017-Oct-30 20:30N 36°50' W 123°07'511.0
2017-Oct-30 20:00N 36°46' W 123°04'510.7
2017-Oct-30 19:30N 36°40' W 123°02'510.9
2017-Oct-30 19:00N 36°35' W 123°01'510.6
2017-Oct-30 18:30N 36°30' W 123°01'510.6
2017-Oct-30 18:00N 36°24' W 123°01'511.0
2017-Oct-30 17:30N 36°19' W 123°01'510.7
2017-Oct-30 17:00N 36°14' W 123°01'510.4
2017-Oct-30 16:30N 36°08' W 123°01'610.4
2017-Oct-30 15:58N 36°03' W 123°00'510.5
2017-Oct-30 15:30N 35°58' W 123°00'510.6
2017-Oct-30 15:00N 35°53' W 123°00'510.7
2017-Oct-30 14:30N 35°47' W 123°00'1010.2
2017-Oct-30 13:30N 35°37' W 122°58'610.8
2017-Oct-30 12:58N 35°33' W 122°54'610.6
2017-Oct-30 12:26N 35°28' W 122°50'610.7
2017-Oct-30 11:55N 35°23' W 122°46'511.0
2017-Oct-30 11:30N 35°20' W 122°43'1211.3
2017-Oct-30 10:26N 35°10' W 122°34'611.5
2017-Oct-30 09:55N 35°05' W 122°30'511.3
2017-Oct-30 09:27N 35°01' W 122°26'511.3
2017-Oct-30 08:59N 34°56' W 122°23'2511.5
2017-Oct-30 06:51N 34°36' W 122°06'811.3
2017-Oct-30 06:10N 34°30' W 122°00'211.3
2017-Oct-30 06:00N 34°28' W 121°59'1611.4
2017-Oct-30 04:37N 34°15' W 121°48'212.1
2017-Oct-30 04:27N 34°13' W 121°47'511.6
2017-Oct-30 04:00N 34°09' W 121°43'711.1
2017-Oct-30 03:23N 34°04' W 121°38'411.1
2017-Oct-30 03:00N 34°00' W 121°36'611.1
2017-Oct-30 02:30N 33°56' W 121°32'710.9
2017-Oct-30 01:54N 33°51' W 121°26'511.0
2017-Oct-30 01:29N 33°50' W 121°21'511.0
2017-Oct-30 01:00N 33°48' W 121°15'510.9
2017-Oct-30 00:30N 33°46' W 121°09'611.1
2017-Oct-30 00:00N 33°44' W 121°02'611.5
2017-Oct-29 23:30N 33°43' W 120°56'611.4
2017-Oct-29 23:00N 33°41' W 120°49'611.4
2017-Oct-29 22:31N 33°39' W 120°43'611.5
2017-Oct-29 22:00N 33°37' W 120°36'511.0
2017-Oct-29 21:30N 33°35' W 120°30'611.2
2017-Oct-29 21:00N 33°35' W 120°23'611.8
2017-Oct-29 20:30N 33°35' W 120°16'611.8
2017-Oct-29 20:00N 33°35' W 120°09'611.8
2017-Oct-29 19:30N 33°35' W 120°02'611.7
2017-Oct-29 19:00N 33°35' W 119°55'612.0
2017-Oct-29 18:29N 33°35' W 119°48'612.2
2017-Oct-29 18:00N 33°35' W 119°40'712.5
2017-Oct-29 17:28N 33°35' W 119°32'612.8
2017-Oct-29 17:00N 33°35' W 119°25'712.7
2017-Oct-29 16:29N 33°35' W 119°18'612.9
2017-Oct-29 15:59N 33°35' W 119°10'612.3
2017-Oct-29 15:30N 33°35' W 119°02'611.8
2017-Oct-29 15:00N 33°36' W 118°56'611.8
2017-Oct-29 14:30N 33°36' W 118°48'611.6
2017-Oct-29 14:00N 33°35' W 118°42'612.0
2017-Oct-29 13:30N 33°35' W 118°34'812.5
2017-Oct-29 12:50N 33°35' W 118°24'412.6
2017-Oct-29 12:30N 33°35' W 118°19'5 9.3
2017-Oct-29 12:00N 33°37' W 118°14'5 9.4
2017-Oct-29 11:30N 33°41' W 118°12'3 5.9
2017-Oct-29 11:00N 33°44' W 118°12'2 3.2
2017-Oct-29 10:29N 33°45' W 118°13'0 0.0
2017-Oct-29 10:00N 33°45' W 118°13'0 0.0
2017-Oct-28 06:21N 33°45' W 118°13'0 0.0
2017-Oct-28 06:00N 33°45' W 118°13'0 0.1
2017-Oct-28 05:30N 33°45' W 118°13'2 3.6
2017-Oct-28 05:00N 33°44' W 118°12'3 6.6
2017-Oct-28 04:29N 33°41' W 118°10'2 5.0
2017-Oct-28 04:00N 33°41' W 118°07'0 0.6
2017-Oct-28 03:30N 33°41' W 118°07'0 0.0
2017-Oct-28 03:00N 33°41' W 118°07'0 0.0
2017-Oct-28 02:30N 33°41' W 118°07'0 0.0
2017-Oct-28 02:00N 33°41' W 118°07'0 0.0
2017-Oct-28 01:30N 33°41' W 118°07'0 0.0
2017-Oct-28 01:00N 33°41' W 118°07'0 0.0
2017-Oct-28 00:30N 33°41' W 118°07'0 0.0
2017-Oct-28 00:00N 33°41' W 118°07'0 0.0
2017-Oct-27 23:30N 33°41' W 118°07'0 0.0
2017-Oct-27 23:00N 33°41' W 118°07'0 0.0
2017-Oct-27 22:30N 33°41' W 118°07'0 0.0
2017-Oct-27 22:00N 33°41' W 118°07'0 0.1
2017-Oct-27 21:30N 33°41' W 118°07'0 0.0
2017-Oct-27 21:00N 33°41' W 118°07'0 0.0
2017-Oct-27 20:24N 33°41' W 118°07'0 0.1
2017-Oct-27 20:00N 33°41' W 118°07'0 0.0
2017-Oct-27 19:30N 33°41' W 118°07'0 0.0
2017-Oct-27 19:00N 33°41' W 118°07'0 0.1
2017-Oct-27 18:30N 33°41' W 118°07'0 0.0
2017-Oct-27 18:00N 33°41' W 118°07'0 0.0
2017-Oct-27 17:30N 33°41' W 118°07'0 0.1
2017-Oct-27 17:00N 33°41' W 118°07'0 0.0
2017-Oct-27 16:06N 33°41' W 118°07'0 0.0
2017-Oct-27 16:00N 33°41' W 118°07'0 0.0
2017-Oct-27 15:30N 33°41' W 118°07'0 0.0
2017-Oct-27 14:54N 33°41' W 118°07'0 0.0
2017-Oct-27 14:30N 33°41' W 118°07'0 0.0
2017-Oct-27 14:00N 33°41' W 118°07'0 0.2
2017-Oct-27 13:28N 33°41' W 118°07'1 0.9
2017-Oct-27 12:56N 33°41' W 118°07'3 5.9
2017-Oct-27 12:30N 33°38' W 118°08'4 9.1
2017-Oct-27 12:00N 33°34' W 118°09'611.6
2017-Oct-27 11:30N 33°28' W 118°07'611.8
2017-Oct-27 10:59N 33°23' W 118°04'611.9
2017-Oct-27 10:31N 33°17' W 118°02'612.0
2017-Oct-27 10:00N 33°12' W 117°59'611.9
2017-Oct-27 09:31N 33°06' W 117°56'612.2
2017-Oct-27 09:00N 33°00' W 117°54'612.3
2017-Oct-27 08:30N 32°55' W 117°52'510.4
2017-Oct-27 08:01N 32°49' W 117°53'611.8
2017-Oct-27 07:30N 32°46' W 117°58'611.8
2017-Oct-27 07:01N 32°42' W 118°03'611.8
2017-Oct-27 06:31N 32°38' W 118°08'611.6
2017-Oct-27 06:00N 32°34' W 118°14'611.7
2017-Oct-27 05:30N 32°30' W 118°19'711.5
2017-Oct-27 04:56N 32°26' W 118°25'5 9.5
2017-Oct-27 04:26N 32°24' W 118°30'1 2.6
2017-Oct-27 04:00N 32°23' W 118°31'612.1
2017-Oct-27 03:30N 32°19' W 118°36'612.0
2017-Oct-27 02:59N 32°15' W 118°42'612.1
2017-Oct-27 02:31N 32°11' W 118°47'612.4
2017-Oct-27 02:00N 32°07' W 118°53'612.4
2017-Oct-27 01:30N 32°03' W 118°59'  
Track history (hours):
 
Tides and Currents Weather Stations Pressure Air Temp Water Temp Dewpoint Dewpoint Depression Visibility Wind Speed Wind Dir Waves Ship Positions

Aquapuelche

Last reported at 2017-Nov-06 01:28 UTC. Time now 2017-Nov-18 15:29 UTC.
Position N 33°39' W 118°12'.
Warning: this ship's position is 12 days out of date.

Length 244 m; draft 8.8 m.

Type: Tanker. MMSI: 636017857.

Date/timePositionNaut miles runAvg speedWind from/ knotsBaromVisibWave heightAir tempDewpointWater temp
2017-Nov-06 01:28N 33°39' W 118°12'1 0.1
2017-Nov-05 15:15N 33°39' W 118°10'14 8.7
2017-Nov-05 13:37N 33°35' W 118°27'111.1
2017-Nov-05 13:30N 33°35' W 118°28'611.6
2017-Nov-05 13:00N 33°35' W 118°35'611.2
2017-Nov-05 12:30N 33°35' W 118°42'611.4
2017-Nov-05 12:00N 33°35' W 118°49'611.6
2017-Nov-05 11:30N 33°35' W 118°55'611.4
2017-Nov-05 11:00N 33°35' W 119°02'611.5
2017-Nov-05 10:30N 33°35' W 119°09'611.5
2017-Nov-05 10:00N 33°35' W 119°16'612.0
2017-Nov-05 09:30N 33°35' W 119°23'611.8
2017-Nov-05 09:00N 33°35' W 119°31'611.8
2017-Nov-05 08:30N 33°35' W 119°37'611.0
2017-Nov-05 07:59N 33°35' W 119°44'611.2
2017-Nov-05 07:30N 33°35' W 119°51'611.6
2017-Nov-05 06:59N 33°35' W 119°58'611.1
2017-Nov-05 06:27N 33°35' W 120°05'511.5
2017-Nov-05 06:00N 33°35' W 120°11'611.6
2017-Nov-05 05:29N 33°35' W 120°18'4 7.9
2017-Nov-05 05:01N 33°35' W 120°23'611.6
2017-Nov-05 04:28N 33°36' W 120°31'512.0
2017-Nov-05 04:00N 33°37' W 120°37'612.0
2017-Nov-05 03:30N 33°39' W 120°44'612.3
2017-Nov-05 03:01N 33°41' W 120°51'612.3
2017-Nov-05 02:30N 33°43' W 120°58'612.3
2017-Nov-05 02:01N 33°45' W 121°05'612.3
2017-Nov-05 01:30N 33°47' W 121°12'612.0
2017-Nov-05 01:00N 33°49' W 121°19'611.8
2017-Nov-05 00:30N 33°51' W 121°25'611.0
2017-Nov-05 00:00N 33°54' W 121°30'612.0
2017-Nov-04 23:31N 33°59' W 121°35'611.7
2017-Nov-04 23:00N 34°04' W 121°39'611.8
2017-Nov-04 22:30N 34°09' W 121°43'612.2
2017-Nov-04 22:01N 34°14' W 121°47'612.6
2017-Nov-04 21:30N 34°19' W 121°51'612.6
2017-Nov-04 21:00N 34°24' W 121°56'612.6
2017-Nov-04 20:30N 34°29' W 121°60'612.7
2017-Nov-04 20:00N 34°34' W 122°04'16412.2
2017-Nov-04 06:32N 37°10' W 123°09'112.2
2017-Nov-04 06:26N 37°11' W 123°09'612.0
2017-Nov-04 05:57N 37°17' W 123°09'511.9
2017-Nov-04 05:30N 37°22' W 123°10'611.5
2017-Nov-04 05:00N 37°28' W 123°10'611.1
2017-Nov-04 04:30N 37°32' W 123°06'611.8
2017-Nov-04 04:00N 37°36' W 123°00'611.9
2017-Nov-04 03:30N 37°39' W 122°54'611.8
2017-Nov-04 03:00N 37°42' W 122°48'611.7
2017-Nov-04 02:30N 37°46' W 122°42'511.0
2017-Nov-04 02:01N 37°47' W 122°35'714.2
2017-Nov-04 01:30N 37°50' W 122°27'510.2
2017-Nov-04 01:00N 37°55' W 122°27'714.3
2017-Nov-04 00:31N 38°02' W 122°23'612.8
2017-Nov-04 00:00N 38°04' W 122°15'611.5
2017-Nov-03 23:30N 38°02' W 122°08'  
2017-Nov-01 19:02N 38°02' W 122°07'0 0.0
2017-Nov-01 18:58N 38°02' W 122°07'0 0.0
2017-Nov-01 18:30N 38°02' W 122°07'70 3.5
2017-Oct-31 22:41N 37°29' W 123°25'1 0.7
2017-Oct-31 20:55N 37°29' W 123°26'0 0.6
2017-Oct-31 20:28N 37°29' W 123°27'1 0.9
2017-Oct-31 19:07N 37°28' W 123°27'1 5.7
2017-Oct-31 18:59N 37°28' W 123°26'5 9.1
2017-Oct-31 18:29N 37°28' W 123°20'1 1.6
2017-Oct-31 17:57N 37°28' W 123°19'0 0.5
2017-Oct-31 17:28N 37°28' W 123°19'2 0.5
2017-Oct-31 13:22N 37°28' W 123°22'4 0.7
2017-Oct-31 08:08N 37°29' W 123°26'0 1.0
2017-Oct-31 07:56N 37°29' W 123°26'4 1.3
2017-Oct-31 04:39N 37°29' W 123°21'0 0.9
2017-Oct-31 04:29N 37°29' W 123°21'3 1.0
2017-Oct-31 01:29N 37°29' W 123°25'0 0.9
2017-Oct-31 01:00N 37°29' W 123°25'0 0.8
2017-Oct-31 00:30N 37°28' W 123°26'16 9.0
2017-Oct-30 22:45N 37°14' W 123°19'1311.4
2017-Oct-30 21:35N 37°01' W 123°12'111.4
2017-Oct-30 21:29N 37°01' W 123°12'611.1
2017-Oct-30 20:59N 36°55' W 123°09'510.9
2017-Oct-30 20:30N 36°50' W 123°07'511.0
2017-Oct-30 20:00N 36°46' W 123°04'510.7
2017-Oct-30 19:30N 36°40' W 123°02'510.9
2017-Oct-30 19:00N 36°35' W 123°01'510.6
2017-Oct-30 18:30N 36°30' W 123°01'510.6
2017-Oct-30 18:00N 36°24' W 123°01'511.0
2017-Oct-30 17:30N 36°19' W 123°01'510.7
2017-Oct-30 17:00N 36°14' W 123°01'510.4
2017-Oct-30 16:30N 36°08' W 123°01'610.4
2017-Oct-30 15:58N 36°03' W 123°00'510.5
2017-Oct-30 15:30N 35°58' W 123°00'510.6
2017-Oct-30 15:00N 35°53' W 123°00'510.7
2017-Oct-30 14:30N 35°47' W 123°00'1010.2
2017-Oct-30 13:30N 35°37' W 122°58'610.8
2017-Oct-30 12:58N 35°33' W 122°54'610.6
2017-Oct-30 12:26N 35°28' W 122°50'610.7
2017-Oct-30 11:55N 35°23' W 122°46'511.0
2017-Oct-30 11:30N 35°20' W 122°43'1211.3
2017-Oct-30 10:26N 35°10' W 122°34'611.5
2017-Oct-30 09:55N 35°05' W 122°30'511.3
2017-Oct-30 09:27N 35°01' W 122°26'511.3
2017-Oct-30 08:59N 34°56' W 122°23'2511.5
2017-Oct-30 06:51N 34°36' W 122°06'811.3
2017-Oct-30 06:10N 34°30' W 122°00'211.3
2017-Oct-30 06:00N 34°28' W 121°59'1611.4
2017-Oct-30 04:37N 34°15' W 121°48'212.1
2017-Oct-30 04:27N 34°13' W 121°47'511.6
2017-Oct-30 04:00N 34°09' W 121°43'711.1
2017-Oct-30 03:23N 34°04' W 121°38'411.1
2017-Oct-30 03:00N 34°00' W 121°36'611.1
2017-Oct-30 02:30N 33°56' W 121°32'710.9
2017-Oct-30 01:54N 33°51' W 121°26'511.0
2017-Oct-30 01:29N 33°50' W 121°21'511.0
2017-Oct-30 01:00N 33°48' W 121°15'510.9
2017-Oct-30 00:30N 33°46' W 121°09'611.1
2017-Oct-30 00:00N 33°44' W 121°02'611.5
2017-Oct-29 23:30N 33°43' W 120°56'611.4
2017-Oct-29 23:00N 33°41' W 120°49'611.4
2017-Oct-29 22:31N 33°39' W 120°43'611.5
2017-Oct-29 22:00N 33°37' W 120°36'511.0
2017-Oct-29 21:30N 33°35' W 120°30'611.2
2017-Oct-29 21:00N 33°35' W 120°23'611.8
2017-Oct-29 20:30N 33°35' W 120°16'611.8
2017-Oct-29 20:00N 33°35' W 120°09'611.8
2017-Oct-29 19:30N 33°35' W 120°02'611.7
2017-Oct-29 19:00N 33°35' W 119°55'612.0
2017-Oct-29 18:29N 33°35' W 119°48'612.2
2017-Oct-29 18:00N 33°35' W 119°40'712.5
2017-Oct-29 17:28N 33°35' W 119°32'612.8
2017-Oct-29 17:00N 33°35' W 119°25'712.7
2017-Oct-29 16:29N 33°35' W 119°18'612.9
2017-Oct-29 15:59N 33°35' W 119°10'612.3
2017-Oct-29 15:30N 33°35' W 119°02'611.8
2017-Oct-29 15:00N 33°36' W 118°56'611.8
2017-Oct-29 14:30N 33°36' W 118°48'611.6
2017-Oct-29 14:00N 33°35' W 118°42'612.0
2017-Oct-29 13:30N 33°35' W 118°34'812.5
2017-Oct-29 12:50N 33°35' W 118°24'412.6
2017-Oct-29 12:30N 33°35' W 118°19'5 9.3
2017-Oct-29 12:00N 33°37' W 118°14'5 9.4
2017-Oct-29 11:30N 33°41' W 118°12'3 5.9
2017-Oct-29 11:00N 33°44' W 118°12'2 3.2
2017-Oct-29 10:29N 33°45' W 118°13'0 0.0
2017-Oct-29 10:00N 33°45' W 118°13'0 0.0
2017-Oct-28 06:21N 33°45' W 118°13'0 0.0
2017-Oct-28 06:00N 33°45' W 118°13'0 0.1
2017-Oct-28 05:30N 33°45' W 118°13'2 3.6
2017-Oct-28 05:00N 33°44' W 118°12'3 6.6
2017-Oct-28 04:29N 33°41' W 118°10'2 5.0
2017-Oct-28 04:00N 33°41' W 118°07'0 0.6
2017-Oct-28 03:30N 33°41' W 118°07'0 0.0
2017-Oct-28 03:00N 33°41' W 118°07'0 0.0
2017-Oct-28 02:30N 33°41' W 118°07'0 0.0
2017-Oct-28 02:00N 33°41' W 118°07'0 0.0
2017-Oct-28 01:30N 33°41' W 118°07'0 0.0
2017-Oct-28 01:00N 33°41' W 118°07'0 0.0
2017-Oct-28 00:30N 33°41' W 118°07'0 0.0
2017-Oct-28 00:00N 33°41' W 118°07'0 0.0
2017-Oct-27 23:30N 33°41' W 118°07'0 0.0
2017-Oct-27 23:00N 33°41' W 118°07'0 0.0
2017-Oct-27 22:30N 33°41' W 118°07'0 0.0
2017-Oct-27 22:00N 33°41' W 118°07'0 0.1
2017-Oct-27 21:30N 33°41' W 118°07'0 0.0
2017-Oct-27 21:00N 33°41' W 118°07'0 0.0
2017-Oct-27 20:24N 33°41' W 118°07'0 0.1
2017-Oct-27 20:00N 33°41' W 118°07'0 0.0
2017-Oct-27 19:30N 33°41' W 118°07'0 0.0
2017-Oct-27 19:00N 33°41' W 118°07'0 0.1
2017-Oct-27 18:30N 33°41' W 118°07'0 0.0
2017-Oct-27 18:00N 33°41' W 118°07'0 0.0
2017-Oct-27 17:30N 33°41' W 118°07'0 0.1
2017-Oct-27 17:00N 33°41' W 118°07'0 0.0
2017-Oct-27 16:06N 33°41' W 118°07'0 0.0
2017-Oct-27 16:00N 33°41' W 118°07'0 0.0
2017-Oct-27 15:30N 33°41' W 118°07'0 0.0
2017-Oct-27 14:54N 33°41' W 118°07'0 0.0
2017-Oct-27 14:30N 33°41' W 118°07'0 0.0
2017-Oct-27 14:00N 33°41' W 118°07'0 0.2
2017-Oct-27 13:28N 33°41' W 118°07'1 0.9
2017-Oct-27 12:56N 33°41' W 118°07'3 5.9
2017-Oct-27 12:30N 33°38' W 118°08'4 9.1
2017-Oct-27 12:00N 33°34' W 118°09'611.6
2017-Oct-27 11:30N 33°28' W 118°07'611.8
2017-Oct-27 10:59N 33°23' W 118°04'611.9
2017-Oct-27 10:31N 33°17' W 118°02'612.0
2017-Oct-27 10:00N 33°12' W 117°59'611.9
2017-Oct-27 09:31N 33°06' W 117°56'612.2
2017-Oct-27 09:00N 33°00' W 117°54'612.3
2017-Oct-27 08:30N 32°55' W 117°52'510.4
2017-Oct-27 08:01N 32°49' W 117°53'611.8
2017-Oct-27 07:30N 32°46' W 117°58'611.8
2017-Oct-27 07:01N 32°42' W 118°03'611.8
2017-Oct-27 06:31N 32°38' W 118°08'611.6
2017-Oct-27 06:00N 32°34' W 118°14'611.7
2017-Oct-27 05:30N 32°30' W 118°19'711.5
2017-Oct-27 04:56N 32°26' W 118°25'5 9.5
2017-Oct-27 04:26N 32°24' W 118°30'1 2.6
2017-Oct-27 04:00N 32°23' W 118°31'612.1
2017-Oct-27 03:30N 32°19' W 118°36'612.0
2017-Oct-27 02:59N 32°15' W 118°42'612.1
2017-Oct-27 02:31N 32°11' W 118°47'612.4
2017-Oct-27 02:00N 32°07' W 118°53'612.4
2017-Oct-27 01:30N 32°03' W 118°59'  

Dump ship's entire track history